sensor_id;sensor_type;location;lat;lon;timestamp;P1;durP1;ratioP1;P2;durP2;ratioP2
46290;SDS011;32023;44.444;26.006;2023-04-15T00:00:22;6.60;;;2.42;;
46290;SDS011;32023;44.444;26.006;2023-04-15T00:02:48;5.15;;;2.20;;
46290;SDS011;32023;44.444;26.006;2023-04-15T00:05:18;8.35;;;2.95;;
46290;SDS011;32023;44.444;26.006;2023-04-15T00:07:48;5.72;;;2.58;;
46290;SDS011;32023;44.444;26.006;2023-04-15T00:10:19;4.25;;;2.55;;
46290;SDS011;32023;44.444;26.006;2023-04-15T00:12:47;5.53;;;2.70;;
46290;SDS011;32023;44.444;26.006;2023-04-15T00:15:14;5.80;;;2.55;;
46290;SDS011;32023;44.444;26.006;2023-04-15T00:17:48;6.20;;;3.25;;
46290;SDS011;32023;44.444;26.006;2023-04-15T00:20:17;5.55;;;2.95;;
46290;SDS011;32023;44.444;26.006;2023-04-15T00:22:44;6.72;;;3.28;;
46290;SDS011;32023;44.444;26.006;2023-04-15T00:25:11;5.93;;;3.03;;
46290;SDS011;32023;44.444;26.006;2023-04-15T00:27:40;7.88;;;3.08;;
46290;SDS011;32023;44.444;26.006;2023-04-15T00:30:07;9.32;;;3.63;;
46290;SDS011;32023;44.444;26.006;2023-04-15T00:32:54;5.38;;;3.45;;
46290;SDS011;32023;44.444;26.006;2023-04-15T00:35:20;8.38;;;4.40;;
46290;SDS011;32023;44.444;26.006;2023-04-15T00:37:48;8.75;;;4.35;;
46290;SDS011;32023;44.444;26.006;2023-04-15T00:40:20;10.65;;;4.55;;
46290;SDS011;32023;44.444;26.006;2023-04-15T00:45:40;9.95;;;5.18;;
46290;SDS011;32023;44.444;26.006;2023-04-15T00:48:16;10.30;;;5.30;;
46290;SDS011;32023;44.444;26.006;2023-04-15T00:53:15;9.80;;;6.43;;
46290;SDS011;32023;44.444;26.006;2023-04-15T00:55:45;11.18;;;6.80;;
46290;SDS011;32023;44.444;26.006;2023-04-15T00:58:13;15.13;;;6.85;;
46290;SDS011;32023;44.444;26.006;2023-04-15T01:00:40;10.60;;;6.70;;
46290;SDS011;32023;44.444;26.006;2023-04-15T01:05:41;11.17;;;7.33;;
46290;SDS011;32023;44.444;26.006;2023-04-15T01:08:27;13.65;;;7.20;;
46290;SDS011;32023;44.444;26.006;2023-04-15T01:11:10;14.18;;;8.95;;
46290;SDS011;32023;44.444;26.006;2023-04-15T01:13:41;16.60;;;8.18;;
46290;SDS011;32023;44.444;26.006;2023-04-15T01:16:08;12.15;;;7.63;;
46290;SDS011;32023;44.444;26.006;2023-04-15T01:18:47;10.63;;;7.80;;
46290;SDS011;32023;44.444;26.006;2023-04-15T01:21:17;18.27;;;8.27;;
46290;SDS011;32023;44.444;26.006;2023-04-15T01:23:44;14.27;;;7.90;;
46290;SDS011;32023;44.444;26.006;2023-04-15T01:26:15;15.75;;;9.05;;
46290;SDS011;32023;44.444;26.006;2023-04-15T01:28:45;15.05;;;10.32;;
46290;SDS011;32023;44.444;26.006;2023-04-15T01:31:12;14.68;;;9.38;;
46290;SDS011;32023;44.444;26.006;2023-04-15T01:33:40;12.88;;;10.00;;
46290;SDS011;32023;44.444;26.006;2023-04-15T01:36:08;12.25;;;8.95;;
46290;SDS011;32023;44.444;26.006;2023-04-15T01:38:36;16.33;;;10.02;;
46290;SDS011;32023;44.444;26.006;2023-04-15T01:41:05;17.02;;;10.25;;
46290;SDS011;32023;44.444;26.006;2023-04-15T01:43:33;15.25;;;10.52;;
46290;SDS011;32023;44.444;26.006;2023-04-15T01:46:05;18.85;;;11.40;;
46290;SDS011;32023;44.444;26.006;2023-04-15T01:48:32;14.05;;;9.38;;
46290;SDS011;32023;44.444;26.006;2023-04-15T01:50:58;17.98;;;9.68;;
46290;SDS011;32023;44.444;26.006;2023-04-15T01:53:25;14.95;;;9.82;;
46290;SDS011;32023;44.444;26.006;2023-04-15T01:58:23;12.52;;;8.85;;
46290;SDS011;32023;44.444;26.006;2023-04-15T02:00:51;18.50;;;9.50;;
46290;SDS011;32023;44.444;26.006;2023-04-15T02:03:17;12.90;;;8.60;;
46290;SDS011;32023;44.444;26.006;2023-04-15T02:05:44;13.10;;;9.30;;
46290;SDS011;32023;44.444;26.006;2023-04-15T02:08:11;14.02;;;8.90;;
46290;SDS011;32023;44.444;26.006;2023-04-15T02:10:38;13.55;;;8.77;;
46290;SDS011;32023;44.444;26.006;2023-04-15T02:13:04;16.25;;;10.07;;
46290;SDS011;32023;44.444;26.006;2023-04-15T02:15:30;13.77;;;8.77;;
46290;SDS011;32023;44.444;26.006;2023-04-15T02:18:03;15.85;;;9.55;;
46290;SDS011;32023;44.444;26.006;2023-04-15T02:20:29;13.27;;;8.90;;
46290;SDS011;32023;44.444;26.006;2023-04-15T02:22:56;12.32;;;8.10;;
46290;SDS011;32023;44.444;26.006;2023-04-15T02:25:25;14.02;;;8.43;;
46290;SDS011;32023;44.444;26.006;2023-04-15T02:27:52;13.13;;;8.10;;
46290;SDS011;32023;44.444;26.006;2023-04-15T02:30:20;16.45;;;8.23;;
46290;SDS011;32023;44.444;26.006;2023-04-15T02:32:55;12.73;;;8.32;;
46290;SDS011;32023;44.444;26.006;2023-04-15T02:35:21;14.57;;;7.45;;
46290;SDS011;32023;44.444;26.006;2023-04-15T02:37:49;13.63;;;8.32;;
46290;SDS011;32023;44.444;26.006;2023-04-15T02:40:16;15.27;;;8.00;;
46290;SDS011;32023;44.444;26.006;2023-04-15T02:42:43;13.52;;;8.48;;
46290;SDS011;32023;44.444;26.006;2023-04-15T02:45:13;14.98;;;8.20;;
46290;SDS011;32023;44.444;26.006;2023-04-15T02:47:45;11.88;;;8.15;;
46290;SDS011;32023;44.444;26.006;2023-04-15T02:50:11;13.13;;;6.90;;
46290;SDS011;32023;44.444;26.006;2023-04-15T02:52:39;12.52;;;8.00;;
46290;SDS011;32023;44.444;26.006;2023-04-15T02:55:06;12.73;;;6.78;;
46290;SDS011;32023;44.444;26.006;2023-04-15T02:57:33;13.77;;;6.88;;
46290;SDS011;32023;44.444;26.006;2023-04-15T03:00:03;15.82;;;6.50;;
46290;SDS011;32023;44.444;26.006;2023-04-15T03:02:33;12.48;;;6.60;;
46290;SDS011;32023;44.444;26.006;2023-04-15T03:05:01;8.95;;;6.38;;
46290;SDS011;32023;44.444;26.006;2023-04-15T03:07:31;8.52;;;5.65;;
46290;SDS011;32023;44.444;26.006;2023-04-15T03:09:57;12.40;;;7.13;;
46290;SDS011;32023;44.444;26.006;2023-04-15T03:12:23;15.60;;;6.10;;
46290;SDS011;32023;44.444;26.006;2023-04-15T03:14:54;9.30;;;5.43;;
46290;SDS011;32023;44.444;26.006;2023-04-15T03:17:20;15.85;;;6.90;;
46290;SDS011;32023;44.444;26.006;2023-04-15T03:19:48;15.48;;;6.88;;
46290;SDS011;32023;44.444;26.006;2023-04-15T03:22:14;11.63;;;6.88;;
46290;SDS011;32023;44.444;26.006;2023-04-15T03:24:45;12.40;;;7.57;;
46290;SDS011;32023;44.444;26.006;2023-04-15T03:27:13;12.85;;;7.18;;
46290;SDS011;32023;44.444;26.006;2023-04-15T03:29:39;15.05;;;7.60;;
46290;SDS011;32023;44.444;26.006;2023-04-15T03:32:05;9.38;;;7.05;;
46290;SDS011;32023;44.444;26.006;2023-04-15T03:34:34;11.98;;;7.20;;
46290;SDS011;32023;44.444;26.006;2023-04-15T03:37:01;9.05;;;6.60;;
46290;SDS011;32023;44.444;26.006;2023-04-15T03:39:27;15.88;;;7.22;;
46290;SDS011;32023;44.444;26.006;2023-04-15T03:41:59;15.65;;;7.38;;
46290;SDS011;32023;44.444;26.006;2023-04-15T03:44:26;10.15;;;6.72;;
46290;SDS011;32023;44.444;26.006;2023-04-15T03:46:52;12.13;;;7.82;;
46290;SDS011;32023;44.444;26.006;2023-04-15T03:49:20;9.77;;;7.30;;
46290;SDS011;32023;44.444;26.006;2023-04-15T03:51:47;10.02;;;6.38;;
46290;SDS011;32023;44.444;26.006;2023-04-15T03:54:31;14.45;;;6.75;;
46290;SDS011;32023;44.444;26.006;2023-04-15T03:56:57;9.45;;;6.75;;
46290;SDS011;32023;44.444;26.006;2023-04-15T03:59:29;19.90;;;7.75;;
46290;SDS011;32023;44.444;26.006;2023-04-15T04:01:55;12.75;;;7.18;;
46290;SDS011;32023;44.444;26.006;2023-04-15T04:04:27;10.85;;;7.28;;
46290;SDS011;32023;44.444;26.006;2023-04-15T04:06:56;9.18;;;6.80;;
46290;SDS011;32023;44.444;26.006;2023-04-15T04:09:22;15.70;;;6.97;;
46290;SDS011;32023;44.444;26.006;2023-04-15T04:11:49;17.52;;;7.78;;
46290;SDS011;32023;44.444;26.006;2023-04-15T04:14:16;10.07;;;6.88;;
46290;SDS011;32023;44.444;26.006;2023-04-15T04:16:42;10.38;;;6.53;;
46290;SDS011;32023;44.444;26.006;2023-04-15T04:19:09;12.32;;;7.38;;
46290;SDS011;32023;44.444;26.006;2023-04-15T04:21:37;16.23;;;7.78;;
46290;SDS011;32023;44.444;26.006;2023-04-15T04:24:12;14.10;;;7.43;;
46290;SDS011;32023;44.444;26.006;2023-04-15T04:29:08;15.32;;;8.05;;
46290;SDS011;32023;44.444;26.006;2023-04-15T04:31:37;14.73;;;7.53;;
46290;SDS011;32023;44.444;26.006;2023-04-15T04:40:13;10.68;;;6.70;;
46290;SDS011;32023;44.444;26.006;2023-04-15T04:42:54;10.45;;;6.10;;
46290;SDS011;32023;44.444;26.006;2023-04-15T04:45:20;11.25;;;6.78;;
46290;SDS011;32023;44.444;26.006;2023-04-15T04:47:54;8.52;;;6.43;;
46290;SDS011;32023;44.444;26.006;2023-04-15T04:50:31;10.50;;;6.13;;
46290;SDS011;32023;44.444;26.006;2023-04-15T04:52:58;14.18;;;8.02;;
46290;SDS011;32023;44.444;26.006;2023-04-15T04:55:28;11.95;;;7.95;;
46290;SDS011;32023;44.444;26.006;2023-04-15T04:58:02;15.65;;;8.00;;
46290;SDS011;32023;44.444;26.006;2023-04-15T05:00:31;13.70;;;8.85;;
46290;SDS011;32023;44.444;26.006;2023-04-15T05:03:03;14.48;;;7.05;;
46290;SDS011;32023;44.444;26.006;2023-04-15T05:05:34;14.90;;;7.88;;
46290;SDS011;32023;44.444;26.006;2023-04-15T05:08:06;11.70;;;7.65;;
46290;SDS011;32023;44.444;26.006;2023-04-15T05:10:33;13.05;;;8.35;;
46290;SDS011;32023;44.444;26.006;2023-04-15T05:13:10;12.32;;;7.50;;
46290;SDS011;32023;44.444;26.006;2023-04-15T05:18:21;13.52;;;6.57;;
46290;SDS011;32023;44.444;26.006;2023-04-15T05:23:19;10.35;;;6.03;;
46290;SDS011;32023;44.444;26.006;2023-04-15T05:25:50;11.57;;;6.07;;
46290;SDS011;32023;44.444;26.006;2023-04-15T05:28:32;11.75;;;5.75;;
46290;SDS011;32023;44.444;26.006;2023-04-15T05:31:06;9.73;;;5.75;;
46290;SDS011;32023;44.444;26.006;2023-04-15T05:33:33;13.20;;;6.70;;
46290;SDS011;32023;44.444;26.006;2023-04-15T05:36:00;13.50;;;7.00;;
46290;SDS011;32023;44.444;26.006;2023-04-15T05:38:29;12.55;;;6.35;;
46290;SDS011;32023;44.444;26.006;2023-04-15T05:40:58;13.82;;;5.72;;
46290;SDS011;32023;44.444;26.006;2023-04-15T05:43:27;9.32;;;5.22;;
46290;SDS011;32023;44.444;26.006;2023-04-15T05:45:54;9.23;;;5.80;;
46290;SDS011;32023;44.444;26.006;2023-04-15T05:48:28;11.95;;;5.05;;
46290;SDS011;32023;44.444;26.006;2023-04-15T05:51:11;9.05;;;4.93;;
46290;SDS011;32023;44.444;26.006;2023-04-15T05:53:37;15.75;;;5.28;;
46290;SDS011;32023;44.444;26.006;2023-04-15T05:56:08;10.38;;;5.70;;
46290;SDS011;32023;44.444;26.006;2023-04-15T05:58:40;9.63;;;5.18;;
46290;SDS011;32023;44.444;26.006;2023-04-15T06:01:09;9.43;;;6.15;;
46290;SDS011;32023;44.444;26.006;2023-04-15T06:03:37;8.25;;;5.50;;
46290;SDS011;32023;44.444;26.006;2023-04-15T06:06:03;10.88;;;5.88;;
46290;SDS011;32023;44.444;26.006;2023-04-15T06:08:30;7.57;;;5.10;;
46290;SDS011;32023;44.444;26.006;2023-04-15T06:10:57;11.38;;;5.60;;
46290;SDS011;32023;44.444;26.006;2023-04-15T06:16:48;7.27;;;4.97;;
46290;SDS011;32023;44.444;26.006;2023-04-15T06:21:49;9.35;;;5.20;;
46290;SDS011;32023;44.444;26.006;2023-04-15T06:24:18;11.30;;;5.18;;
46290;SDS011;32023;44.444;26.006;2023-04-15T06:27:07;9.20;;;5.65;;
46290;SDS011;32023;44.444;26.006;2023-04-15T06:29:37;10.55;;;5.35;;
46290;SDS011;32023;44.444;26.006;2023-04-15T06:32:03;14.05;;;6.13;;
46290;SDS011;32023;44.444;26.006;2023-04-15T06:34:30;18.67;;;6.68;;
46290;SDS011;32023;44.444;26.006;2023-04-15T06:36:56;12.45;;;6.82;;
46290;SDS011;32023;44.444;26.006;2023-04-15T06:39:22;10.15;;;6.30;;
46290;SDS011;32023;44.444;26.006;2023-04-15T06:41:49;11.25;;;6.20;;
46290;SDS011;32023;44.444;26.006;2023-04-15T06:44:15;9.13;;;6.13;;
46290;SDS011;32023;44.444;26.006;2023-04-15T06:46:42;12.18;;;5.85;;
46290;SDS011;32023;44.444;26.006;2023-04-15T06:49:09;8.57;;;6.30;;
46290;SDS011;32023;44.444;26.006;2023-04-15T06:51:36;9.20;;;5.95;;
46290;SDS011;32023;44.444;26.006;2023-04-15T06:54:09;10.02;;;5.85;;
46290;SDS011;32023;44.444;26.006;2023-04-15T06:56:38;11.90;;;6.88;;
46290;SDS011;32023;44.444;26.006;2023-04-15T06:59:07;15.15;;;6.47;;
46290;SDS011;32023;44.444;26.006;2023-04-15T07:01:33;14.07;;;7.72;;
46290;SDS011;32023;44.444;26.006;2023-04-15T07:04:05;12.65;;;7.28;;
46290;SDS011;32023;44.444;26.006;2023-04-15T07:09:49;15.98;;;6.68;;
46290;SDS011;32023;44.444;26.006;2023-04-15T07:12:20;9.38;;;6.22;;
46290;SDS011;32023;44.444;26.006;2023-04-15T07:14:49;13.98;;;6.95;;
46290;SDS011;32023;44.444;26.006;2023-04-15T07:17:18;15.50;;;6.57;;
46290;SDS011;32023;44.444;26.006;2023-04-15T07:19:45;9.63;;;6.00;;
46290;SDS011;32023;44.444;26.006;2023-04-15T07:22:11;12.13;;;5.95;;
46290;SDS011;32023;44.444;26.006;2023-04-15T07:24:38;17.10;;;6.15;;
46290;SDS011;32023;44.444;26.006;2023-04-15T07:27:13;8.68;;;5.68;;
46290;SDS011;32023;44.444;26.006;2023-04-15T07:29:43;11.85;;;5.18;;
46290;SDS011;32023;44.444;26.006;2023-04-15T07:32:09;7.13;;;4.45;;
46290;SDS011;32023;44.444;26.006;2023-04-15T07:34:36;9.45;;;5.18;;
46290;SDS011;32023;44.444;26.006;2023-04-15T07:37:02;9.63;;;5.05;;
46290;SDS011;32023;44.444;26.006;2023-04-15T07:39:31;14.18;;;5.30;;
46290;SDS011;32023;44.444;26.006;2023-04-15T07:42:01;11.35;;;4.60;;
46290;SDS011;32023;44.444;26.006;2023-04-15T07:44:30;7.40;;;3.40;;
46290;SDS011;32023;44.444;26.006;2023-04-15T07:46:57;4.70;;;3.33;;
46290;SDS011;32023;44.444;26.006;2023-04-15T07:49:23;8.15;;;3.70;;
46290;SDS011;32023;44.444;26.006;2023-04-15T07:51:55;9.02;;;4.13;;
46290;SDS011;32023;44.444;26.006;2023-04-15T07:54:27;6.50;;;3.80;;
46290;SDS011;32023;44.444;26.006;2023-04-15T07:56:55;9.70;;;3.58;;
46290;SDS011;32023;44.444;26.006;2023-04-15T07:59:24;6.50;;;3.10;;
46290;SDS011;32023;44.444;26.006;2023-04-15T08:01:54;5.63;;;3.17;;
46290;SDS011;32023;44.444;26.006;2023-04-15T08:04:20;10.18;;;3.28;;
46290;SDS011;32023;44.444;26.006;2023-04-15T08:06:47;6.97;;;3.88;;
46290;SDS011;32023;44.444;26.006;2023-04-15T08:09:15;7.28;;;3.13;;
46290;SDS011;32023;44.444;26.006;2023-04-15T08:19:46;7.45;;;3.38;;
46290;SDS011;32023;44.444;26.006;2023-04-15T08:22:13;9.95;;;3.95;;
46290;SDS011;32023;44.444;26.006;2023-04-15T08:24:42;7.03;;;3.28;;
46290;SDS011;32023;44.444;26.006;2023-04-15T08:27:13;5.75;;;3.30;;
46290;SDS011;32023;44.444;26.006;2023-04-15T08:29:52;9.57;;;2.90;;
46290;SDS011;32023;44.444;26.006;2023-04-15T08:32:18;4.68;;;3.03;;
46290;SDS011;32023;44.444;26.006;2023-04-15T08:34:45;6.75;;;2.53;;
46290;SDS011;32023;44.444;26.006;2023-04-15T08:37:12;2.85;;;1.85;;
46290;SDS011;32023;44.444;26.006;2023-04-15T08:39:38;4.70;;;2.35;;
46290;SDS011;32023;44.444;26.006;2023-04-15T08:42:06;4.80;;;2.40;;
46290;SDS011;32023;44.444;26.006;2023-04-15T08:44:40;4.90;;;2.97;;
46290;SDS011;32023;44.444;26.006;2023-04-15T08:47:08;4.60;;;2.60;;
46290;SDS011;32023;44.444;26.006;2023-04-15T08:49:42;3.90;;;2.60;;
46290;SDS011;32023;44.444;26.006;2023-04-15T08:52:09;5.57;;;2.35;;
46290;SDS011;32023;44.444;26.006;2023-04-15T08:54:36;4.03;;;2.22;;
46290;SDS011;32023;44.444;26.006;2023-04-15T08:57:03;2.90;;;2.40;;
46290;SDS011;32023;44.444;26.006;2023-04-15T08:59:32;4.32;;;2.45;;
46290;SDS011;32023;44.444;26.006;2023-04-15T09:01:59;5.35;;;3.00;;
46290;SDS011;32023;44.444;26.006;2023-04-15T09:04:27;6.05;;;2.45;;
46290;SDS011;32023;44.444;26.006;2023-04-15T09:06:55;4.38;;;2.30;;
46290;SDS011;32023;44.444;26.006;2023-04-15T09:09:25;3.30;;;2.15;;
46290;SDS011;32023;44.444;26.006;2023-04-15T09:11:53;4.75;;;2.03;;
46290;SDS011;32023;44.444;26.006;2023-04-15T09:14:21;4.10;;;2.15;;
46290;SDS011;32023;44.444;26.006;2023-04-15T09:22:12;2.53;;;1.40;;
46290;SDS011;32023;44.444;26.006;2023-04-15T09:24:41;2.47;;;1.52;;
46290;SDS011;32023;44.444;26.006;2023-04-15T09:27:08;9.10;;;1.83;;
46290;SDS011;32023;44.444;26.006;2023-04-15T09:29:40;2.60;;;1.70;;
46290;SDS011;32023;44.444;26.006;2023-04-15T09:32:13;4.95;;;1.80;;
46290;SDS011;32023;44.444;26.006;2023-04-15T09:34:47;5.97;;;1.75;;
46290;SDS011;32023;44.444;26.006;2023-04-15T09:37:14;5.22;;;1.48;;
46290;SDS011;32023;44.444;26.006;2023-04-15T09:39:46;3.75;;;1.63;;
46290;SDS011;32023;44.444;26.006;2023-04-15T09:42:14;1.92;;;1.50;;
46290;SDS011;32023;44.444;26.006;2023-04-15T09:44:54;4.38;;;2.00;;
46290;SDS011;32023;44.444;26.006;2023-04-15T09:47:32;1.67;;;1.30;;
46290;SDS011;32023;44.444;26.006;2023-04-15T09:49:59;3.63;;;1.27;;
46290;SDS011;32023;44.444;26.006;2023-04-15T09:52:26;3.13;;;1.45;;
46290;SDS011;32023;44.444;26.006;2023-04-15T09:54:56;1.98;;;1.60;;
46290;SDS011;32023;44.444;26.006;2023-04-15T09:57:45;2.28;;;1.30;;
46290;SDS011;32023;44.444;26.006;2023-04-15T10:00:18;2.28;;;1.58;;
46290;SDS011;32023;44.444;26.006;2023-04-15T10:02:48;4.20;;;1.77;;
46290;SDS011;32023;44.444;26.006;2023-04-15T10:05:15;2.65;;;1.83;;
46290;SDS011;32023;44.444;26.006;2023-04-15T10:07:42;1.90;;;1.50;;
46290;SDS011;32023;44.444;26.006;2023-04-15T10:10:10;3.03;;;1.63;;
46290;SDS011;32023;44.444;26.006;2023-04-15T10:12:42;3.55;;;1.60;;
46290;SDS011;32023;44.444;26.006;2023-04-15T10:15:12;2.58;;;1.45;;
46290;SDS011;32023;44.444;26.006;2023-04-15T10:17:43;5.43;;;1.80;;
46290;SDS011;32023;44.444;26.006;2023-04-15T10:20:16;2.95;;;1.70;;
46290;SDS011;32023;44.444;26.006;2023-04-15T10:22:45;3.10;;;2.10;;
46290;SDS011;32023;44.444;26.006;2023-04-15T10:25:18;2.63;;;1.80;;
46290;SDS011;32023;44.444;26.006;2023-04-15T10:27:48;2.90;;;1.70;;
46290;SDS011;32023;44.444;26.006;2023-04-15T10:30:20;2.03;;;1.90;;
46290;SDS011;32023;44.444;26.006;2023-04-15T10:32:46;1.70;;;1.60;;
46290;SDS011;32023;44.444;26.006;2023-04-15T10:35:14;5.60;;;2.03;;
46290;SDS011;32023;44.444;26.006;2023-04-15T10:37:42;4.55;;;2.10;;
46290;SDS011;32023;44.444;26.006;2023-04-15T10:42:56;3.55;;;1.70;;
46290;SDS011;32023;44.444;26.006;2023-04-15T10:45:31;2.55;;;1.80;;
46290;SDS011;32023;44.444;26.006;2023-04-15T10:48:02;3.03;;;1.50;;
46290;SDS011;32023;44.444;26.006;2023-04-15T10:50:31;2.42;;;1.30;;
46290;SDS011;32023;44.444;26.006;2023-04-15T10:53:04;2.53;;;1.80;;
46290;SDS011;32023;44.444;26.006;2023-04-15T10:55:34;2.05;;;1.30;;
46290;SDS011;32023;44.444;26.006;2023-04-15T10:58:07;1.77;;;1.63;;
46290;SDS011;32023;44.444;26.006;2023-04-15T11:00:37;2.63;;;1.33;;
46290;SDS011;32023;44.444;26.006;2023-04-15T11:03:05;3.85;;;1.40;;
46290;SDS011;32023;44.444;26.006;2023-04-15T11:08:16;2.78;;;1.42;;
46290;SDS011;32023;44.444;26.006;2023-04-15T11:15:44;2.40;;;1.35;;
46290;SDS011;32023;44.444;26.006;2023-04-15T11:20:58;2.45;;;1.10;;
46290;SDS011;32023;44.444;26.006;2023-04-15T11:23:32;2.60;;;1.50;;
46290;SDS011;32023;44.444;26.006;2023-04-15T11:26:27;2.42;;;1.45;;
46290;SDS011;32023;44.444;26.006;2023-04-15T11:28:54;3.92;;;1.27;;
46290;SDS011;32023;44.444;26.006;2023-04-15T11:31:25;1.83;;;1.23;;
46290;SDS011;32023;44.444;26.006;2023-04-15T11:33:58;1.90;;;1.25;;
46290;SDS011;32023;44.444;26.006;2023-04-15T11:36:26;1.33;;;1.00;;
46290;SDS011;32023;44.444;26.006;2023-04-15T11:38:58;3.20;;;1.23;;
46290;SDS011;32023;44.444;26.006;2023-04-15T11:41:37;5.55;;;1.20;;
46290;SDS011;32023;44.444;26.006;2023-04-15T11:44:15;3.58;;;1.15;;
46290;SDS011;32023;44.444;26.006;2023-04-15T11:46:42;2.63;;;1.00;;
46290;SDS011;32023;44.444;26.006;2023-04-15T11:49:27;4.63;;;1.10;;
46290;SDS011;32023;44.444;26.006;2023-04-15T11:52:09;2.22;;;0.88;;
46290;SDS011;32023;44.444;26.006;2023-04-15T11:54:38;3.85;;;1.17;;
46290;SDS011;32023;44.444;26.006;2023-04-15T11:57:10;3.30;;;1.05;;
46290;SDS011;32023;44.444;26.006;2023-04-15T11:59:46;2.30;;;1.10;;
46290;SDS011;32023;44.444;26.006;2023-04-15T12:02:12;4.18;;;1.20;;
46290;SDS011;32023;44.444;26.006;2023-04-15T12:04:41;2.45;;;1.05;;
46290;SDS011;32023;44.444;26.006;2023-04-15T12:07:08;4.68;;;0.80;;
46290;SDS011;32023;44.444;26.006;2023-04-15T12:09:37;2.15;;;0.95;;
46290;SDS011;32023;44.444;26.006;2023-04-15T12:12:07;2.45;;;0.90;;
46290;SDS011;32023;44.444;26.006;2023-04-15T12:14:35;1.85;;;0.80;;
46290;SDS011;32023;44.444;26.006;2023-04-15T12:17:06;1.55;;;0.90;;
46290;SDS011;32023;44.444;26.006;2023-04-15T12:19:38;4.03;;;1.05;;
46290;SDS011;32023;44.444;26.006;2023-04-15T12:22:27;2.58;;;0.77;;
46290;SDS011;32023;44.444;26.006;2023-04-15T12:24:58;2.53;;;1.00;;
46290;SDS011;32023;44.444;26.006;2023-04-15T12:27:30;4.47;;;0.80;;
46290;SDS011;32023;44.444;26.006;2023-04-15T12:30:03;6.55;;;1.08;;
46290;SDS011;32023;44.444;26.006;2023-04-15T12:32:30;4.32;;;1.08;;
46290;SDS011;32023;44.444;26.006;2023-04-15T12:35:00;3.42;;;0.93;;
46290;SDS011;32023;44.444;26.006;2023-04-15T12:37:26;3.33;;;1.00;;
46290;SDS011;32023;44.444;26.006;2023-04-15T12:39:53;3.10;;;0.98;;
46290;SDS011;32023;44.444;26.006;2023-04-15T12:42:19;2.50;;;1.02;;
46290;SDS011;32023;44.444;26.006;2023-04-15T12:44:46;2.47;;;1.08;;
46290;SDS011;32023;44.444;26.006;2023-04-15T12:47:13;1.83;;;0.80;;
46290;SDS011;32023;44.444;26.006;2023-04-15T12:49:39;2.72;;;1.00;;
46290;SDS011;32023;44.444;26.006;2023-04-15T12:52:10;1.50;;;0.82;;
46290;SDS011;32023;44.444;26.006;2023-04-15T12:54:43;6.70;;;0.98;;
46290;SDS011;32023;44.444;26.006;2023-04-15T12:57:09;2.78;;;0.90;;
46290;SDS011;32023;44.444;26.006;2023-04-15T12:59:36;1.63;;;0.70;;
46290;SDS011;32023;44.444;26.006;2023-04-15T13:02:06;1.73;;;0.75;;
46290;SDS011;32023;44.444;26.006;2023-04-15T13:04:37;3.77;;;1.20;;
46290;SDS011;32023;44.444;26.006;2023-04-15T13:07:06;1.60;;;0.70;;
46290;SDS011;32023;44.444;26.006;2023-04-15T13:09:34;1.83;;;0.93;;
46290;SDS011;32023;44.444;26.006;2023-04-15T13:12:00;1.80;;;0.85;;
46290;SDS011;32023;44.444;26.006;2023-04-15T13:14:29;1.30;;;0.60;;
46290;SDS011;32023;44.444;26.006;2023-04-15T13:16:56;2.95;;;0.80;;
46290;SDS011;32023;44.444;26.006;2023-04-15T13:19:23;3.17;;;0.88;;
46290;SDS011;32023;44.444;26.006;2023-04-15T13:21:50;1.02;;;0.60;;
46290;SDS011;32023;44.444;26.006;2023-04-15T13:24:16;2.72;;;0.80;;
46290;SDS011;32023;44.444;26.006;2023-04-15T13:26:53;2.60;;;0.68;;
46290;SDS011;32023;44.444;26.006;2023-04-15T13:29:26;2.35;;;0.90;;
46290;SDS011;32023;44.444;26.006;2023-04-15T13:31:52;3.53;;;1.02;;
46290;SDS011;32023;44.444;26.006;2023-04-15T13:34:18;2.08;;;0.70;;
46290;SDS011;32023;44.444;26.006;2023-04-15T13:37:03;3.55;;;0.80;;
46290;SDS011;32023;44.444;26.006;2023-04-15T13:39:33;3.72;;;0.70;;
46290;SDS011;32023;44.444;26.006;2023-04-15T13:42:01;1.52;;;0.80;;
46290;SDS011;32023;44.444;26.006;2023-04-15T13:44:27;1.52;;;0.75;;
46290;SDS011;32023;44.444;26.006;2023-04-15T13:50:33;2.47;;;0.75;;
46290;SDS011;32023;44.444;26.006;2023-04-15T13:53:09;1.85;;;0.70;;
46290;SDS011;32023;44.444;26.006;2023-04-15T13:55:36;1.75;;;0.45;;
46290;SDS011;32023;44.444;26.006;2023-04-15T13:58:05;4.07;;;1.00;;
46290;SDS011;32023;44.444;26.006;2023-04-15T14:00:33;1.33;;;0.45;;
46290;SDS011;32023;44.444;26.006;2023-04-15T14:02:59;5.63;;;0.75;;
46290;SDS011;32023;44.444;26.006;2023-04-15T14:05:25;1.02;;;0.63;;
46290;SDS011;32023;44.444;26.006;2023-04-15T14:07:52;1.23;;;0.60;;
46290;SDS011;32023;44.444;26.006;2023-04-15T14:10:21;2.70;;;0.70;;
46290;SDS011;32023;44.444;26.006;2023-04-15T14:12:48;1.60;;;0.60;;
46290;SDS011;32023;44.444;26.006;2023-04-15T14:15:14;2.17;;;0.70;;
46290;SDS011;32023;44.444;26.006;2023-04-15T14:17:41;5.15;;;0.98;;
46290;SDS011;32023;44.444;26.006;2023-04-15T14:20:07;4.30;;;0.90;;
46290;SDS011;32023;44.444;26.006;2023-04-15T14:22:34;2.28;;;0.55;;
46290;SDS011;32023;44.444;26.006;2023-04-15T14:25:01;3.67;;;0.82;;
46290;SDS011;32023;44.444;26.006;2023-04-15T14:27:30;0.93;;;0.60;;
46290;SDS011;32023;44.444;26.006;2023-04-15T14:29:56;1.20;;;0.73;;
46290;SDS011;32023;44.444;26.006;2023-04-15T14:32:29;1.75;;;0.90;;
46290;SDS011;32023;44.444;26.006;2023-04-15T14:34:58;1.73;;;0.70;;
46290;SDS011;32023;44.444;26.006;2023-04-15T14:37:24;2.33;;;0.55;;
46290;SDS011;32023;44.444;26.006;2023-04-15T14:39:51;1.85;;;0.80;;
46290;SDS011;32023;44.444;26.006;2023-04-15T14:42:20;1.60;;;0.70;;
46290;SDS011;32023;44.444;26.006;2023-04-15T14:44:50;3.65;;;0.95;;
46290;SDS011;32023;44.444;26.006;2023-04-15T14:47:19;3.03;;;0.60;;
46290;SDS011;32023;44.444;26.006;2023-04-15T14:49:45;3.25;;;1.08;;
46290;SDS011;32023;44.444;26.006;2023-04-15T14:52:14;2.45;;;0.50;;
46290;SDS011;32023;44.444;26.006;2023-04-15T14:54:43;2.15;;;1.00;;
46290;SDS011;32023;44.444;26.006;2023-04-15T14:57:10;1.50;;;0.73;;
46290;SDS011;32023;44.444;26.006;2023-04-15T14:59:36;1.88;;;0.68;;
46290;SDS011;32023;44.444;26.006;2023-04-15T15:02:03;4.57;;;0.80;;
46290;SDS011;32023;44.444;26.006;2023-04-15T15:04:29;1.98;;;0.60;;
46290;SDS011;32023;44.444;26.006;2023-04-15T15:07:03;4.82;;;0.77;;
46290;SDS011;32023;44.444;26.006;2023-04-15T15:09:32;3.40;;;0.80;;
46290;SDS011;32023;44.444;26.006;2023-04-15T15:11:58;3.28;;;0.65;;
46290;SDS011;32023;44.444;26.006;2023-04-15T15:14:28;1.92;;;0.70;;
46290;SDS011;32023;44.444;26.006;2023-04-15T15:17:04;1.85;;;0.70;;
46290;SDS011;32023;44.444;26.006;2023-04-15T15:19:33;1.45;;;0.55;;
46290;SDS011;32023;44.444;26.006;2023-04-15T15:22:00;2.45;;;0.77;;
46290;SDS011;32023;44.444;26.006;2023-04-15T15:24:30;5.25;;;0.80;;
46290;SDS011;32023;44.444;26.006;2023-04-15T15:26:59;2.17;;;0.70;;
46290;SDS011;32023;44.444;26.006;2023-04-15T15:29:42;3.33;;;0.95;;
46290;SDS011;32023;44.444;26.006;2023-04-15T15:34:38;1.92;;;0.77;;
46290;SDS011;32023;44.444;26.006;2023-04-15T15:37:05;1.98;;;0.60;;
46290;SDS011;32023;44.444;26.006;2023-04-15T15:39:43;4.28;;;0.80;;
46290;SDS011;32023;44.444;26.006;2023-04-15T15:42:17;3.10;;;0.80;;
46290;SDS011;32023;44.444;26.006;2023-04-15T15:47:42;2.25;;;1.17;;
46290;SDS011;32023;44.444;26.006;2023-04-15T15:50:12;3.15;;;0.90;;